Terminal Aerodrome Forecast
Issued by NWS

Home | Current Version | Previous Version | Text Only | Print | Product List | Glossary On
Versions: 1 2 3 4 5 6 7 8 9 10 11 12 13
000
FTUS46 KSTO 212300
TAFMHR
TAF
KMHR 212320Z 2200/2224 21008KT P6SM BKN120 OVC200
     FM220600 14006KT P6SM SCT200
     FM222100 21007KT P6SM FEW200=

USA.gov is the U.S. government's official web portal to all federal, state and local government web resources and services.